sensor_id;sensor_type;location;lat;lon;timestamp;P1;durP1;ratioP1;P2;durP2;ratioP2
32152;SDS011;18656;50.580;11.392;2023-06-24T00:00:35;13.63;;;11.55;;
32152;SDS011;18656;50.580;11.392;2023-06-24T00:03:04;12.05;;;10.63;;
32152;SDS011;18656;50.580;11.392;2023-06-24T00:05:34;12.80;;;11.18;;
32152;SDS011;18656;50.580;11.392;2023-06-24T00:08:01;13.40;;;12.00;;
32152;SDS011;18656;50.580;11.392;2023-06-24T00:10:30;16.60;;;11.98;;
32152;SDS011;18656;50.580;11.392;2023-06-24T00:12:57;17.33;;;13.52;;
32152;SDS011;18656;50.580;11.392;2023-06-24T00:15:27;15.35;;;12.40;;
32152;SDS011;18656;50.580;11.392;2023-06-24T00:17:55;14.18;;;11.85;;
32152;SDS011;18656;50.580;11.392;2023-06-24T00:20:31;20.38;;;12.30;;
32152;SDS011;18656;50.580;11.392;2023-06-24T00:22:59;17.05;;;11.63;;
32152;SDS011;18656;50.580;11.392;2023-06-24T00:25:27;16.33;;;12.02;;
32152;SDS011;18656;50.580;11.392;2023-06-24T00:27:54;15.45;;;13.48;;
32152;SDS011;18656;50.580;11.392;2023-06-24T00:30:22;16.65;;;13.48;;
32152;SDS011;18656;50.580;11.392;2023-06-24T00:32:49;13.15;;;11.32;;
32152;SDS011;18656;50.580;11.392;2023-06-24T00:35:17;18.20;;;13.38;;
32152;SDS011;18656;50.580;11.392;2023-06-24T00:37:44;21.60;;;15.20;;
32152;SDS011;18656;50.580;11.392;2023-06-24T00:40:12;19.13;;;13.82;;
32152;SDS011;18656;50.580;11.392;2023-06-24T00:42:45;15.70;;;12.98;;
32152;SDS011;18656;50.580;11.392;2023-06-24T00:45:13;20.58;;;13.23;;
32152;SDS011;18656;50.580;11.392;2023-06-24T00:47:42;12.82;;;11.60;;
32152;SDS011;18656;50.580;11.392;2023-06-24T00:50:10;13.98;;;11.20;;
32152;SDS011;18656;50.580;11.392;2023-06-24T00:52:40;15.02;;;11.73;;
32152;SDS011;18656;50.580;11.392;2023-06-24T00:55:10;17.70;;;11.25;;
32152;SDS011;18656;50.580;11.392;2023-06-24T00:57:44;12.65;;;11.00;;
32152;SDS011;18656;50.580;11.392;2023-06-24T01:00:12;16.52;;;10.50;;
32152;SDS011;18656;50.580;11.392;2023-06-24T01:02:42;12.82;;;10.98;;
32152;SDS011;18656;50.580;11.392;2023-06-24T01:05:09;13.57;;;10.80;;
32152;SDS011;18656;50.580;11.392;2023-06-24T01:07:37;12.32;;;11.00;;
32152;SDS011;18656;50.580;11.392;2023-06-24T01:10:05;12.38;;;11.07;;
32152;SDS011;18656;50.580;11.392;2023-06-24T01:12:33;18.70;;;13.68;;
32152;SDS011;18656;50.580;11.392;2023-06-24T01:15:01;12.88;;;11.63;;
32152;SDS011;18656;50.580;11.392;2023-06-24T01:17:34;13.23;;;11.98;;
32152;SDS011;18656;50.580;11.392;2023-06-24T01:36:12;18.10;;;13.18;;
32152;SDS011;18656;50.580;11.392;2023-06-24T01:38:51;13.85;;;12.30;;
32152;SDS011;18656;50.580;11.392;2023-06-24T01:41:21;13.23;;;11.77;;
32152;SDS011;18656;50.580;11.392;2023-06-24T01:43:49;13.63;;;12.32;;
32152;SDS011;18656;50.580;11.392;2023-06-24T01:46:19;12.88;;;10.90;;
32152;SDS011;18656;50.580;11.392;2023-06-24T01:48:48;15.73;;;11.45;;
32152;SDS011;18656;50.580;11.392;2023-06-24T01:51:18;12.30;;;10.48;;
32152;SDS011;18656;50.580;11.392;2023-06-24T01:53:51;11.32;;;10.23;;
32152;SDS011;18656;50.580;11.392;2023-06-24T01:56:18;11.52;;;10.32;;
32152;SDS011;18656;50.580;11.392;2023-06-24T01:58:47;11.68;;;10.57;;
32152;SDS011;18656;50.580;11.392;2023-06-24T02:01:15;14.63;;;11.18;;
32152;SDS011;18656;50.580;11.392;2023-06-24T02:03:43;14.40;;;10.80;;
32152;SDS011;18656;50.580;11.392;2023-06-24T02:06:10;12.20;;;10.45;;
32152;SDS011;18656;50.580;11.392;2023-06-24T02:08:39;11.45;;;10.40;;
32152;SDS011;18656;50.580;11.392;2023-06-24T02:11:08;11.88;;;10.57;;
32152;SDS011;18656;50.580;11.392;2023-06-24T02:13:35;13.00;;;11.80;;
32152;SDS011;18656;50.580;11.392;2023-06-24T02:16:04;12.68;;;11.48;;
32152;SDS011;18656;50.580;11.392;2023-06-24T02:18:37;12.40;;;11.27;;
32152;SDS011;18656;50.580;11.392;2023-06-24T02:21:08;15.32;;;12.10;;
32152;SDS011;18656;50.580;11.392;2023-06-24T02:23:36;15.88;;;11.88;;
32152;SDS011;18656;50.580;11.392;2023-06-24T02:26:04;12.77;;;11.45;;
32152;SDS011;18656;50.580;11.392;2023-06-24T02:28:33;16.20;;;13.30;;
32152;SDS011;18656;50.580;11.392;2023-06-24T02:31:01;14.80;;;12.10;;
32152;SDS011;18656;50.580;11.392;2023-06-24T02:33:28;14.35;;;12.60;;
32152;SDS011;18656;50.580;11.392;2023-06-24T02:35:55;15.93;;;13.27;;
32152;SDS011;18656;50.580;11.392;2023-06-24T02:38:22;15.48;;;13.52;;
32152;SDS011;18656;50.580;11.392;2023-06-24T02:40:53;20.08;;;15.48;;
32152;SDS011;18656;50.580;11.392;2023-06-24T02:43:20;16.58;;;13.98;;
32152;SDS011;18656;50.580;11.392;2023-06-24T02:45:47;17.45;;;13.15;;
32152;SDS011;18656;50.580;11.392;2023-06-24T02:48:15;15.10;;;13.60;;
32152;SDS011;18656;50.580;11.392;2023-06-24T02:50:43;17.20;;;14.70;;
32152;SDS011;18656;50.580;11.392;2023-06-24T02:53:11;17.75;;;13.48;;
32152;SDS011;18656;50.580;11.392;2023-06-24T02:55:39;16.33;;;14.65;;
32152;SDS011;18656;50.580;11.392;2023-06-24T02:58:07;19.30;;;14.57;;
32152;SDS011;18656;50.580;11.392;2023-06-24T03:00:35;16.55;;;14.13;;
32152;SDS011;18656;50.580;11.392;2023-06-24T03:03:03;16.48;;;14.68;;
32152;SDS011;18656;50.580;11.392;2023-06-24T03:05:31;16.75;;;14.45;;
32152;SDS011;18656;50.580;11.392;2023-06-24T03:08:00;17.27;;;14.60;;
32152;SDS011;18656;50.580;11.392;2023-06-24T03:10:29;21.08;;;16.45;;
32152;SDS011;18656;50.580;11.392;2023-06-24T03:12:57;18.60;;;15.43;;
32152;SDS011;18656;50.580;11.392;2023-06-24T03:15:24;19.98;;;15.98;;
32152;SDS011;18656;50.580;11.392;2023-06-24T03:17:53;16.15;;;14.48;;
32152;SDS011;18656;50.580;11.392;2023-06-24T03:20:20;15.55;;;14.05;;
32152;SDS011;18656;50.580;11.392;2023-06-24T03:22:48;17.92;;;14.35;;
32152;SDS011;18656;50.580;11.392;2023-06-24T03:25:15;21.23;;;15.85;;
32152;SDS011;18656;50.580;11.392;2023-06-24T03:27:42;18.90;;;15.43;;
32152;SDS011;18656;50.580;11.392;2023-06-24T03:30:10;18.05;;;14.30;;
32152;SDS011;18656;50.580;11.392;2023-06-24T03:32:41;18.30;;;15.00;;
32152;SDS011;18656;50.580;11.392;2023-06-24T03:35:13;15.70;;;13.82;;
32152;SDS011;18656;50.580;11.392;2023-06-24T03:37:40;16.25;;;14.55;;
32152;SDS011;18656;50.580;11.392;2023-06-24T03:40:08;14.15;;;12.65;;
32152;SDS011;18656;50.580;11.392;2023-06-24T03:42:35;13.82;;;12.52;;
32152;SDS011;18656;50.580;11.392;2023-06-24T03:45:03;15.85;;;14.15;;
32152;SDS011;18656;50.580;11.392;2023-06-24T03:47:30;15.45;;;13.82;;
32152;SDS011;18656;50.580;11.392;2023-06-24T03:49:57;18.10;;;13.18;;
32152;SDS011;18656;50.580;11.392;2023-06-24T03:52:25;15.73;;;14.10;;
32152;SDS011;18656;50.580;11.392;2023-06-24T03:54:52;20.20;;;15.82;;
32152;SDS011;18656;50.580;11.392;2023-06-24T03:57:19;20.40;;;15.00;;
32152;SDS011;18656;50.580;11.392;2023-06-24T03:59:47;15.38;;;13.77;;
32152;SDS011;18656;50.580;11.392;2023-06-24T04:02:14;17.52;;;14.60;;
32152;SDS011;18656;50.580;11.392;2023-06-24T04:04:41;14.95;;;13.35;;
32152;SDS011;18656;50.580;11.392;2023-06-24T04:07:08;15.15;;;13.63;;
32152;SDS011;18656;50.580;11.392;2023-06-24T04:09:36;15.20;;;13.63;;
32152;SDS011;18656;50.580;11.392;2023-06-24T04:12:03;15.55;;;14.00;;
32152;SDS011;18656;50.580;11.392;2023-06-24T04:14:30;16.42;;;14.73;;
32152;SDS011;18656;50.580;11.392;2023-06-24T04:16:58;15.32;;;13.77;;
32152;SDS011;18656;50.580;11.392;2023-06-24T04:19:25;18.50;;;13.45;;
32152;SDS011;18656;50.580;11.392;2023-06-24T04:21:52;15.25;;;12.40;;
32152;SDS011;18656;50.580;11.392;2023-06-24T04:24:19;15.07;;;13.52;;
32152;SDS011;18656;50.580;11.392;2023-06-24T04:26:46;17.75;;;13.75;;
32152;SDS011;18656;50.580;11.392;2023-06-24T04:29:14;16.63;;;13.88;;
32152;SDS011;18656;50.580;11.392;2023-06-24T04:31:41;16.38;;;12.57;;
32152;SDS011;18656;50.580;11.392;2023-06-24T04:34:08;12.73;;;11.40;;
32152;SDS011;18656;50.580;11.392;2023-06-24T04:36:36;14.63;;;12.75;;
32152;SDS011;18656;50.580;11.392;2023-06-24T04:39:03;13.75;;;12.45;;
32152;SDS011;18656;50.580;11.392;2023-06-24T04:41:30;12.20;;;11.10;;
32152;SDS011;18656;50.580;11.392;2023-06-24T04:43:58;12.57;;;11.38;;
32152;SDS011;18656;50.580;11.392;2023-06-24T04:46:25;10.45;;;9.45;;
32152;SDS011;18656;50.580;11.392;2023-06-24T04:48:52;10.85;;;9.85;;
32152;SDS011;18656;50.580;11.392;2023-06-24T04:51:20;13.57;;;12.15;;
32152;SDS011;18656;50.580;11.392;2023-06-24T04:53:47;13.52;;;12.23;;
32152;SDS011;18656;50.580;11.392;2023-06-24T04:56:14;17.38;;;11.45;;
32152;SDS011;18656;50.580;11.392;2023-06-24T04:58:41;33.85;;;12.35;;
32152;SDS011;18656;50.580;11.392;2023-06-24T05:01:09;19.25;;;11.73;;
32152;SDS011;18656;50.580;11.392;2023-06-24T05:03:36;12.07;;;10.98;;
32152;SDS011;18656;50.580;11.392;2023-06-24T05:06:04;11.85;;;10.55;;
32152;SDS011;18656;50.580;11.392;2023-06-24T05:08:31;10.32;;;9.38;;
32152;SDS011;18656;50.580;11.392;2023-06-24T05:10:58;11.98;;;9.65;;
32152;SDS011;18656;50.580;11.392;2023-06-24T05:13:26;9.45;;;8.55;;
32152;SDS011;18656;50.580;11.392;2023-06-24T05:15:54;15.65;;;10.40;;
32152;SDS011;18656;50.580;11.392;2023-06-24T05:18:21;12.27;;;9.73;;
32152;SDS011;18656;50.580;11.392;2023-06-24T05:20:48;10.43;;;9.50;;
32152;SDS011;18656;50.580;11.392;2023-06-24T05:23:15;10.30;;;9.38;;
32152;SDS011;18656;50.580;11.392;2023-06-24T05:25:43;8.88;;;8.18;;
32152;SDS011;18656;50.580;11.392;2023-06-24T05:28:10;39.80;;;9.63;;
32152;SDS011;18656;50.580;11.392;2023-06-24T05:30:38;19.13;;;9.13;;
32152;SDS011;18656;50.580;11.392;2023-06-24T05:33:05;8.55;;;7.85;;
32152;SDS011;18656;50.580;11.392;2023-06-24T05:35:35;8.63;;;7.82;;
32152;SDS011;18656;50.580;11.392;2023-06-24T05:38:06;14.75;;;9.05;;
32152;SDS011;18656;50.580;11.392;2023-06-24T05:40:33;9.40;;;8.60;;
32152;SDS011;18656;50.580;11.392;2023-06-24T05:43:00;8.15;;;7.45;;
32152;SDS011;18656;50.580;11.392;2023-06-24T05:45:29;8.93;;;8.02;;
32152;SDS011;18656;50.580;11.392;2023-06-24T05:47:56;8.35;;;7.55;;
32152;SDS011;18656;50.580;11.392;2023-06-24T05:50:23;8.38;;;7.68;;
32152;SDS011;18656;50.580;11.392;2023-06-24T05:52:50;7.78;;;6.97;;
32152;SDS011;18656;50.580;11.392;2023-06-24T05:55:18;9.30;;;7.45;;
32152;SDS011;18656;50.580;11.392;2023-06-24T05:57:45;10.35;;;6.35;;
32152;SDS011;18656;50.580;11.392;2023-06-24T06:00:12;7.10;;;6.60;;
32152;SDS011;18656;50.580;11.392;2023-06-24T06:02:40;7.22;;;5.72;;
32152;SDS011;18656;50.580;11.392;2023-06-24T06:05:07;6.88;;;6.38;;
32152;SDS011;18656;50.580;11.392;2023-06-24T06:07:35;6.28;;;5.85;;
32152;SDS011;18656;50.580;11.392;2023-06-24T06:10:05;6.15;;;5.65;;
32152;SDS011;18656;50.580;11.392;2023-06-24T06:12:32;6.15;;;5.30;;
32152;SDS011;18656;50.580;11.392;2023-06-24T06:15:00;6.75;;;5.70;;
32152;SDS011;18656;50.580;11.392;2023-06-24T06:17:27;5.40;;;4.97;;
32152;SDS011;18656;50.580;11.392;2023-06-24T06:19:54;4.40;;;4.07;;
32152;SDS011;18656;50.580;11.392;2023-06-24T06:22:21;6.00;;;5.40;;
32152;SDS011;18656;50.580;11.392;2023-06-24T06:24:48;6.20;;;5.70;;
32152;SDS011;18656;50.580;11.392;2023-06-24T06:27:16;5.65;;;5.15;;
32152;SDS011;18656;50.580;11.392;2023-06-24T06:29:43;4.90;;;4.57;;
32152;SDS011;18656;50.580;11.392;2023-06-24T06:32:10;5.20;;;4.70;;
32152;SDS011;18656;50.580;11.392;2023-06-24T06:34:37;4.07;;;3.78;;
32152;SDS011;18656;50.580;11.392;2023-06-24T06:37:05;4.70;;;4.40;;
32152;SDS011;18656;50.580;11.392;2023-06-24T06:39:32;4.32;;;4.03;;
32152;SDS011;18656;50.580;11.392;2023-06-24T06:41:59;4.15;;;3.95;;
32152;SDS011;18656;50.580;11.392;2023-06-24T06:44:27;4.78;;;4.40;;
32152;SDS011;18656;50.580;11.392;2023-06-24T06:46:54;3.95;;;3.75;;
32152;SDS011;18656;50.580;11.392;2023-06-24T06:49:21;6.05;;;3.97;;
32152;SDS011;18656;50.580;11.392;2023-06-24T06:51:48;4.05;;;3.80;;
32152;SDS011;18656;50.580;11.392;2023-06-24T06:54:15;3.78;;;3.53;;
32152;SDS011;18656;50.580;11.392;2023-06-24T06:56:43;3.53;;;3.28;;
32152;SDS011;18656;50.580;11.392;2023-06-24T06:59:10;3.03;;;2.83;;
32152;SDS011;18656;50.580;11.392;2023-06-24T07:01:37;3.58;;;2.40;;
32152;SDS011;18656;50.580;11.392;2023-06-24T07:04:05;2.78;;;2.67;;
32152;SDS011;18656;50.580;11.392;2023-06-24T07:06:32;3.70;;;2.40;;
32152;SDS011;18656;50.580;11.392;2023-06-24T07:09:00;2.20;;;2.10;;
32152;SDS011;18656;50.580;11.392;2023-06-24T07:11:27;2.75;;;2.65;;
32152;SDS011;18656;50.580;11.392;2023-06-24T07:13:54;2.83;;;2.63;;
32152;SDS011;18656;50.580;11.392;2023-06-24T07:16:21;3.05;;;2.85;;
32152;SDS011;18656;50.580;11.392;2023-06-24T07:18:49;3.10;;;2.90;;
32152;SDS011;18656;50.580;11.392;2023-06-24T07:21:16;2.97;;;2.78;;
32152;SDS011;18656;50.580;11.392;2023-06-24T07:23:43;4.60;;;3.60;;
32152;SDS011;18656;50.580;11.392;2023-06-24T07:26:11;2.97;;;2.78;;
32152;SDS011;18656;50.580;11.392;2023-06-24T07:28:38;2.92;;;2.72;;
32152;SDS011;18656;50.580;11.392;2023-06-24T07:31:05;4.78;;;2.83;;
32152;SDS011;18656;50.580;11.392;2023-06-24T07:33:32;2.95;;;2.75;;
32152;SDS011;18656;50.580;11.392;2023-06-24T07:36:00;3.28;;;2.80;;
32152;SDS011;18656;50.580;11.392;2023-06-24T07:38:30;2.75;;;2.53;;
32152;SDS011;18656;50.580;11.392;2023-06-24T07:40:57;5.65;;;2.50;;
32152;SDS011;18656;50.580;11.392;2023-06-24T07:43:24;3.13;;;2.33;;
32152;SDS011;18656;50.580;11.392;2023-06-24T07:45:51;2.78;;;2.00;;
32152;SDS011;18656;50.580;11.392;2023-06-24T07:48:19;2.30;;;2.10;;
32152;SDS011;18656;50.580;11.392;2023-06-24T07:50:46;2.22;;;2.00;;
32152;SDS011;18656;50.580;11.392;2023-06-24T07:53:13;2.92;;;2.35;;
32152;SDS011;18656;50.580;11.392;2023-06-24T07:55:40;4.10;;;2.22;;
32152;SDS011;18656;50.580;11.392;2023-06-24T07:58:07;3.00;;;2.05;;
32152;SDS011;18656;50.580;11.392;2023-06-24T08:00:35;2.30;;;2.10;;
32152;SDS011;18656;50.580;11.392;2023-06-24T08:03:05;1.85;;;1.75;;
32152;SDS011;18656;50.580;11.392;2023-06-24T08:05:32;3.20;;;1.70;;
32152;SDS011;18656;50.580;11.392;2023-06-24T08:08:00;2.00;;;1.88;;
32152;SDS011;18656;50.580;11.392;2023-06-24T08:10:27;5.78;;;2.05;;
32152;SDS011;18656;50.580;11.392;2023-06-24T08:12:55;1.98;;;1.85;;
32152;SDS011;18656;50.580;11.392;2023-06-24T08:15:22;2.20;;;1.80;;
32152;SDS011;18656;50.580;11.392;2023-06-24T08:17:52;2.97;;;1.50;;
32152;SDS011;18656;50.580;11.392;2023-06-24T08:20:20;1.92;;;1.70;;
32152;SDS011;18656;50.580;11.392;2023-06-24T08:22:48;2.05;;;1.92;;
32152;SDS011;18656;50.580;11.392;2023-06-24T08:25:15;1.98;;;1.80;;
32152;SDS011;18656;50.580;11.392;2023-06-24T08:27:42;2.40;;;1.50;;
32152;SDS011;18656;50.580;11.392;2023-06-24T08:30:13;3.83;;;1.90;;
32152;SDS011;18656;50.580;11.392;2023-06-24T08:32:44;2.42;;;1.73;;
32152;SDS011;18656;50.580;11.392;2023-06-24T08:35:11;4.55;;;1.95;;
32152;SDS011;18656;50.580;11.392;2023-06-24T08:37:39;4.00;;;1.85;;
32152;SDS011;18656;50.580;11.392;2023-06-24T08:40:06;4.95;;;1.80;;
32152;SDS011;18656;50.580;11.392;2023-06-24T08:42:33;4.80;;;1.98;;
32152;SDS011;18656;50.580;11.392;2023-06-24T08:45:01;2.60;;;1.58;;
32152;SDS011;18656;50.580;11.392;2023-06-24T08:47:28;1.83;;;1.73;;
32152;SDS011;18656;50.580;11.392;2023-06-24T08:50:01;1.65;;;1.55;;
32152;SDS011;18656;50.580;11.392;2023-06-24T08:52:30;1.90;;;1.80;;
32152;SDS011;18656;50.580;11.392;2023-06-24T08:55:01;3.10;;;1.50;;
32152;SDS011;18656;50.580;11.392;2023-06-24T08:57:28;2.03;;;1.92;;
32152;SDS011;18656;50.580;11.392;2023-06-24T08:59:55;1.65;;;1.55;;
32152;SDS011;18656;50.580;11.392;2023-06-24T09:02:23;2.42;;;1.67;;
32152;SDS011;18656;50.580;11.392;2023-06-24T09:04:51;3.65;;;1.70;;
32152;SDS011;18656;50.580;11.392;2023-06-24T09:07:28;5.50;;;1.90;;
32152;SDS011;18656;50.580;11.392;2023-06-24T09:09:55;3.83;;;1.38;;
32152;SDS011;18656;50.580;11.392;2023-06-24T09:12:24;1.77;;;1.55;;
32152;SDS011;18656;50.580;11.392;2023-06-24T09:14:54;6.18;;;1.70;;
32152;SDS011;18656;50.580;11.392;2023-06-24T09:17:21;1.88;;;1.77;;
32152;SDS011;18656;50.580;11.392;2023-06-24T09:19:49;1.50;;;1.35;;
32152;SDS011;18656;50.580;11.392;2023-06-24T09:22:17;2.45;;;1.95;;
32152;SDS011;18656;50.580;11.392;2023-06-24T09:24:46;2.72;;;1.60;;
32152;SDS011;18656;50.580;11.392;2023-06-24T09:27:16;3.83;;;1.70;;
32152;SDS011;18656;50.580;11.392;2023-06-24T09:29:51;1.80;;;1.70;;
32152;SDS011;18656;50.580;11.392;2023-06-24T09:32:19;4.57;;;1.70;;
32152;SDS011;18656;50.580;11.392;2023-06-24T09:34:46;2.58;;;1.85;;
32152;SDS011;18656;50.580;11.392;2023-06-24T09:37:20;2.58;;;2.05;;
32152;SDS011;18656;50.580;11.392;2023-06-24T09:39:49;2.13;;;1.98;;
32152;SDS011;18656;50.580;11.392;2023-06-24T09:42:20;1.80;;;1.70;;
32152;SDS011;18656;50.580;11.392;2023-06-24T09:44:52;3.20;;;1.67;;
32152;SDS011;18656;50.580;11.392;2023-06-24T09:47:20;1.80;;;1.60;;
32152;SDS011;18656;50.580;11.392;2023-06-24T09:49:51;4.88;;;1.85;;
32152;SDS011;18656;50.580;11.392;2023-06-24T09:52:19;2.40;;;1.70;;
32152;SDS011;18656;50.580;11.392;2023-06-24T09:54:47;2.50;;;1.50;;
32152;SDS011;18656;50.580;11.392;2023-06-24T09:57:18;1.98;;;1.80;;
32152;SDS011;18656;50.580;11.392;2023-06-24T09:59:48;4.22;;;2.13;;
32152;SDS011;18656;50.580;11.392;2023-06-24T10:02:16;2.85;;;1.88;;
32152;SDS011;18656;50.580;11.392;2023-06-24T10:04:44;1.48;;;1.38;;
32152;SDS011;18656;50.580;11.392;2023-06-24T10:07:13;2.42;;;2.03;;
32152;SDS011;18656;50.580;11.392;2023-06-24T10:09:41;2.15;;;1.80;;
32152;SDS011;18656;50.580;11.392;2023-06-24T10:12:09;3.90;;;1.77;;
32152;SDS011;18656;50.580;11.392;2023-06-24T10:14:37;1.50;;;1.40;;
32152;SDS011;18656;50.580;11.392;2023-06-24T10:17:04;1.70;;;1.60;;
32152;SDS011;18656;50.580;11.392;2023-06-24T10:19:37;2.80;;;1.60;;
32152;SDS011;18656;50.580;11.392;2023-06-24T10:22:08;2.10;;;1.85;;
32152;SDS011;18656;50.580;11.392;2023-06-24T10:24:39;3.97;;;1.70;;
32152;SDS011;18656;50.580;11.392;2023-06-24T10:27:09;1.85;;;1.77;;
32152;SDS011;18656;50.580;11.392;2023-06-24T10:29:44;1.90;;;1.80;;
32152;SDS011;18656;50.580;11.392;2023-06-24T10:32:12;1.85;;;1.75;;
32152;SDS011;18656;50.580;11.392;2023-06-24T10:37:08;1.50;;;1.50;;
32152;SDS011;18656;50.580;11.392;2023-06-24T10:39:36;3.63;;;1.52;;
32152;SDS011;18656;50.580;11.392;2023-06-24T10:44:50;2.13;;;2.03;;
32152;SDS011;18656;50.580;11.392;2023-06-24T10:47:18;2.22;;;1.40;;
32152;SDS011;18656;50.580;11.392;2023-06-24T10:49:45;2.15;;;1.77;;
32152;SDS011;18656;50.580;11.392;2023-06-24T10:52:13;1.80;;;1.70;;
32152;SDS011;18656;50.580;11.392;2023-06-24T10:54:40;1.85;;;1.30;;
32152;SDS011;18656;50.580;11.392;2023-06-24T10:57:11;2.85;;;1.42;;
32152;SDS011;18656;50.580;11.392;2023-06-24T10:59:42;1.50;;;1.40;;
32152;SDS011;18656;50.580;11.392;2023-06-24T11:02:09;1.70;;;1.60;;
32152;SDS011;18656;50.580;11.392;2023-06-24T11:04:50;2.05;;;1.85;;
32152;SDS011;18656;50.580;11.392;2023-06-24T11:07:18;1.80;;;1.70;;
32152;SDS011;18656;50.580;11.392;2023-06-24T11:10:05;1.77;;;1.67;;
32152;SDS011;18656;50.580;11.392;2023-06-24T11:12:37;2.83;;;2.00;;
32152;SDS011;18656;50.580;11.392;2023-06-24T11:15:08;2.25;;;2.05;;
32152;SDS011;18656;50.580;11.392;2023-06-24T11:17:36;2.80;;;1.90;;
32152;SDS011;18656;50.580;11.392;2023-06-24T11:20:08;1.67;;;1.58;;
32152;SDS011;18656;50.580;11.392;2023-06-24T11:22:35;1.90;;;1.80;;
32152;SDS011;18656;50.580;11.392;2023-06-24T11:25:02;2.92;;;1.75;;
32152;SDS011;18656;50.580;11.392;2023-06-24T11:27:30;1.80;;;1.70;;
32152;SDS011;18656;50.580;11.392;2023-06-24T11:29:58;2.00;;;1.88;;
32152;SDS011;18656;50.580;11.392;2023-06-24T11:32:34;1.88;;;1.77;;
32152;SDS011;18656;50.580;11.392;2023-06-24T11:35:06;1.98;;;1.77;;
32152;SDS011;18656;50.580;11.392;2023-06-24T11:37:34;1.92;;;1.73;;
32152;SDS011;18656;50.580;11.392;2023-06-24T11:40:05;2.40;;;1.80;;
32152;SDS011;18656;50.580;11.392;2023-06-24T11:42:36;7.63;;;1.83;;
32152;SDS011;18656;50.580;11.392;2023-06-24T11:45:07;5.90;;;1.98;;
32152;SDS011;18656;50.580;11.392;2023-06-24T11:50:05;2.03;;;1.92;;
32152;SDS011;18656;50.580;11.392;2023-06-24T11:55:17;3.30;;;1.70;;
32152;SDS011;18656;50.580;11.392;2023-06-24T11:57:49;4.43;;;2.22;;
32152;SDS011;18656;50.580;11.392;2023-06-24T12:00:16;1.77;;;1.58;;
32152;SDS011;18656;50.580;11.392;2023-06-24T12:02:44;2.15;;;2.05;;
32152;SDS011;18656;50.580;11.392;2023-06-24T12:05:11;2.90;;;2.30;;
32152;SDS011;18656;50.580;11.392;2023-06-24T12:07:38;2.35;;;2.13;;
32152;SDS011;18656;50.580;11.392;2023-06-24T12:10:07;1.95;;;1.85;;
32152;SDS011;18656;50.580;11.392;2023-06-24T12:12:34;2.28;;;2.08;;
32152;SDS011;18656;50.580;11.392;2023-06-24T12:15:02;1.92;;;1.83;;
32152;SDS011;18656;50.580;11.392;2023-06-24T12:17:31;2.65;;;2.00;;
32152;SDS011;18656;50.580;11.392;2023-06-24T12:19:58;2.10;;;2.00;;
32152;SDS011;18656;50.580;11.392;2023-06-24T12:22:25;2.10;;;2.00;;
32152;SDS011;18656;50.580;11.392;2023-06-24T12:24:53;2.70;;;1.80;;
32152;SDS011;18656;50.580;11.392;2023-06-24T12:27:20;1.88;;;1.77;;
32152;SDS011;18656;50.580;11.392;2023-06-24T12:29:47;3.10;;;1.80;;
32152;SDS011;18656;50.580;11.392;2023-06-24T12:32:15;2.70;;;2.10;;
32152;SDS011;18656;50.580;11.392;2023-06-24T12:34:42;1.95;;;1.85;;
32152;SDS011;18656;50.580;11.392;2023-06-24T12:37:09;4.40;;;2.13;;
32152;SDS011;18656;50.580;11.392;2023-06-24T12:39:36;2.53;;;1.80;;
32152;SDS011;18656;50.580;11.392;2023-06-24T12:42:04;2.53;;;1.83;;
32152;SDS011;18656;50.580;11.392;2023-06-24T12:44:32;2.28;;;2.08;;
32152;SDS011;18656;50.580;11.392;2023-06-24T12:46:59;4.07;;;2.28;;
32152;SDS011;18656;50.580;11.392;2023-06-24T12:49:26;2.58;;;1.80;;
32152;SDS011;18656;50.580;11.392;2023-06-24T12:51:54;3.03;;;1.90;;
32152;SDS011;18656;50.580;11.392;2023-06-24T12:54:21;2.17;;;2.08;;
32152;SDS011;18656;50.580;11.392;2023-06-24T12:56:48;2.22;;;1.90;;
32152;SDS011;18656;50.580;11.392;2023-06-24T12:59:22;2.30;;;2.10;;
32152;SDS011;18656;50.580;11.392;2023-06-24T13:01:49;2.20;;;2.00;;
32152;SDS011;18656;50.580;11.392;2023-06-24T13:04:16;2.40;;;2.20;;
32152;SDS011;18656;50.580;11.392;2023-06-24T13:06:47;2.50;;;2.30;;
32152;SDS011;18656;50.580;11.392;2023-06-24T13:09:15;2.30;;;2.17;;
32152;SDS011;18656;50.580;11.392;2023-06-24T13:11:42;2.25;;;2.08;;
32152;SDS011;18656;50.580;11.392;2023-06-24T13:14:10;3.72;;;2.10;;
32152;SDS011;18656;50.580;11.392;2023-06-24T13:16:37;2.15;;;1.95;;
32152;SDS011;18656;50.580;11.392;2023-06-24T13:19:05;3.70;;;2.20;;
32152;SDS011;18656;50.580;11.392;2023-06-24T13:21:32;2.70;;;2.25;;
32152;SDS011;18656;50.580;11.392;2023-06-24T13:23:59;2.13;;;2.03;;
32152;SDS011;18656;50.580;11.392;2023-06-24T13:26:27;2.05;;;1.95;;
32152;SDS011;18656;50.580;11.392;2023-06-24T13:28:54;2.35;;;2.20;;
32152;SDS011;18656;50.580;11.392;2023-06-24T13:31:21;1.88;;;1.70;;
32152;SDS011;18656;50.580;11.392;2023-06-24T13:33:48;2.40;;;2.30;;
32152;SDS011;18656;50.580;11.392;2023-06-24T13:36:29;2.38;;;2.20;;
32152;SDS011;18656;50.580;11.392;2023-06-24T13:38:57;2.10;;;2.00;;
32152;SDS011;18656;50.580;11.392;2023-06-24T13:41:25;2.00;;;1.90;;
32152;SDS011;18656;50.580;11.392;2023-06-24T13:43:56;2.40;;;2.20;;
32152;SDS011;18656;50.580;11.392;2023-06-24T13:46:23;2.35;;;2.13;;
32152;SDS011;18656;50.580;11.392;2023-06-24T13:48:51;2.50;;;2.30;;
32152;SDS011;18656;50.580;11.392;2023-06-24T13:51:18;3.67;;;2.47;;
32152;SDS011;18656;50.580;11.392;2023-06-24T13:53:49;2.25;;;1.98;;
32152;SDS011;18656;50.580;11.392;2023-06-24T13:56:21;3.70;;;2.50;;
32152;SDS011;18656;50.580;11.392;2023-06-24T13:58:50;3.30;;;2.22;;
32152;SDS011;18656;50.580;11.392;2023-06-24T14:01:17;3.25;;;2.38;;
32152;SDS011;18656;50.580;11.392;2023-06-24T14:03:45;2.78;;;2.58;;
32152;SDS011;18656;50.580;11.392;2023-06-24T14:06:16;2.25;;;2.13;;
32152;SDS011;18656;50.580;11.392;2023-06-24T14:08:43;2.10;;;2.00;;
32152;SDS011;18656;50.580;11.392;2023-06-24T14:11:11;2.50;;;2.30;;
32152;SDS011;18656;50.580;11.392;2023-06-24T14:13:39;2.25;;;2.05;;
32152;SDS011;18656;50.580;11.392;2023-06-24T14:16:06;2.05;;;1.85;;
32152;SDS011;18656;50.580;11.392;2023-06-24T14:18:37;2.17;;;2.08;;
32152;SDS011;18656;50.580;11.392;2023-06-24T14:21:05;2.10;;;1.98;;
32152;SDS011;18656;50.580;11.392;2023-06-24T14:23:33;2.35;;;2.25;;
32152;SDS011;18656;50.580;11.392;2023-06-24T14:26:00;3.72;;;2.03;;
32152;SDS011;18656;50.580;11.392;2023-06-24T14:28:28;2.08;;;1.90;;
32152;SDS011;18656;50.580;11.392;2023-06-24T14:30:55;1.98;;;1.88;;
32152;SDS011;18656;50.580;11.392;2023-06-24T14:33:23;2.13;;;2.00;;
32152;SDS011;18656;50.580;11.392;2023-06-24T14:35:50;2.10;;;2.00;;
32152;SDS011;18656;50.580;11.392;2023-06-24T14:38:18;2.20;;;2.00;;
32152;SDS011;18656;50.580;11.392;2023-06-24T14:40:45;4.07;;;2.17;;
32152;SDS011;18656;50.580;11.392;2023-06-24T14:43:12;2.35;;;2.15;;
32152;SDS011;18656;50.580;11.392;2023-06-24T14:45:40;3.67;;;2.13;;
32152;SDS011;18656;50.580;11.392;2023-06-24T14:48:07;2.28;;;2.10;;
32152;SDS011;18656;50.580;11.392;2023-06-24T14:50:34;2.22;;;2.10;;
32152;SDS011;18656;50.580;11.392;2023-06-24T14:53:02;2.15;;;2.05;;
32152;SDS011;18656;50.580;11.392;2023-06-24T14:55:29;2.20;;;2.10;;
32152;SDS011;18656;50.580;11.392;2023-06-24T14:57:57;3.55;;;2.38;;